Time,TemperatureF,DewpointF,PressureIn,WindDirection,WindDirectionDegrees,WindSpeedMPH,WindSpeedGustMPH,Humidity,HourlyPrecipIn,Conditions,Clouds,dailyrainin,SoftwareType,DateUTC
2013-11-05 00:01:00,44.8,0.0,30.06,West,270,0.0,0.4,0,0.00,,,0.00,WUHU216HW,2013-11-05 08:01:00,
2013-11-05 00:06:00,44.8,0.0,30.06,West,270,0.0,0.4,0,0.01,,,0.01,WUHU216HW,2013-11-05 08:06:00,
2013-11-05 00:11:00,44.8,0.0,30.06,West,270,0.4,0.4,0,0.01,,,0.01,WUHU216HW,2013-11-05 08:11:00,
2013-11-05 00:16:00,44.8,0.0,30.06,West,270,0.0,0.7,0,0.01,,,0.01,WUHU216HW,2013-11-05 08:16:00,
2013-11-05 00:21:00,44.8,0.0,30.06,West,270,0.0,0.7,0,0.01,,,0.01,WUHU216HW,2013-11-05 08:21:00,
2013-11-05 00:26:00,44.8,0.0,30.06,West,270,0.0,0.4,0,0.01,,,0.01,WUHU216HW,2013-11-05 08:26:00,
2013-11-05 00:31:00,44.8,0.0,30.06,West,270,1.1,1.1,0,0.01,,,0.01,WUHU216HW,2013-11-05 08:31:00,
2013-11-05 00:36:00,44.8,0.0,30.06,WSW,248,1.1,2.0,0,0.02,,,0.02,WUHU216HW,2013-11-05 08:36:00,
2013-11-05 00:41:00,44.8,0.0,30.06,SW,225,1.8,2.0,0,0.02,,,0.02,WUHU216HW,2013-11-05 08:41:00,
2013-11-05 00:46:00,44.8,0.0,30.06,SW,225,1.3,2.0,0,0.04,,,0.04,WUHU216HW,2013-11-05 08:46:00,
2013-11-05 00:51:00,44.8,0.0,30.06,SW,225,1.1,2.0,0,0.04,,,0.04,WUHU216HW,2013-11-05 08:51:00,
2013-11-05 00:56:00,44.8,0.0,30.06,SW,225,0.7,1.6,0,0.04,,,0.04,WUHU216HW,2013-11-05 08:56:00,
2013-11-05 01:01:00,44.8,0.0,30.05,SW,225,0.7,1.6,0,0.04,,,0.04,WUHU216HW,2013-11-05 09:01:00,
2013-11-05 01:06:00,44.6,0.0,30.05,SW,225,0.7,1.3,0,0.03,,,0.04,WUHU216HW,2013-11-05 09:06:00,
2013-11-05 01:11:00,44.6,0.0,30.05,SW,225,1.1,1.3,0,0.03,,,0.04,WUHU216HW,2013-11-05 09:11:00,
2013-11-05 01:16:00,44.6,0.0,30.05,SW,225,0.0,1.1,0,0.03,,,0.04,WUHU216HW,2013-11-05 09:16:00,
2013-11-05 01:21:00,44.8,0.0,30.05,SW,225,0.0,1.1,0,0.05,,,0.06,WUHU216HW,2013-11-05 09:21:00,
2013-11-05 01:26:00,44.6,0.0,30.05,SW,225,0.0,0.2,0,0.05,,,0.06,WUHU216HW,2013-11-05 09:26:00,
2013-11-05 01:31:00,44.6,0.0,30.05,SW,225,0.0,0.0,0,0.05,,,0.06,WUHU216HW,2013-11-05 09:31:00,
2013-11-05 01:36:00,44.8,0.0,30.05,SW,225,0.0,0.2,0,0.04,,,0.06,WUHU216HW,2013-11-05 09:36:00,
2013-11-05 01:41:00,44.6,0.0,30.05,SW,225,0.0,0.2,0,0.04,,,0.06,WUHU216HW,2013-11-05 09:41:00,
2013-11-05 01:46:00,44.8,0.0,30.05,SW,225,0.0,0.0,0,0.02,,,0.06,WUHU216HW,2013-11-05 09:46:00,
2013-11-05 01:51:00,44.8,0.0,30.05,SW,225,0.2,0.2,0,0.04,,,0.08,WUHU216HW,2013-11-05 09:51:00,
2013-11-05 01:56:00,44.6,0.0,30.04,SW,225,1.1,1.1,0,0.04,,,0.08,WUHU216HW,2013-11-05 09:56:00,
2013-11-05 02:01:00,44.6,0.0,30.04,SW,225,0.0,1.1,0,0.04,,,0.08,WUHU216HW,2013-11-05 10:01:00,
2013-11-05 02:06:00,44.8,0.0,30.04,SW,225,0.0,1.1,0,0.04,,,0.08,WUHU216HW,2013-11-05 10:06:00,
2013-11-05 02:11:00,44.6,0.0,30.04,SW,225,0.4,0.4,0,0.04,,,0.08,WUHU216HW,2013-11-05 10:11:00,
2013-11-05 02:16:00,44.8,0.0,30.04,SW,225,0.0,0.4,0,0.04,,,0.08,WUHU216HW,2013-11-05 10:16:00,
2013-11-05 02:21:00,44.8,0.0,30.04,SW,225,0.2,0.4,0,0.02,,,0.08,WUHU216HW,2013-11-05 10:21:00,
2013-11-05 02:26:00,44.8,0.0,30.04,SW,225,0.4,0.4,0,0.02,,,0.08,WUHU216HW,2013-11-05 10:26:00,
2013-11-05 02:31:00,44.8,0.0,30.04,ESE,113,0.4,0.9,0,0.02,,,0.08,WUHU216HW,2013-11-05 10:31:00,
2013-11-05 02:36:00,44.8,0.0,30.04,ESE,113,0.2,0.9,0,0.02,,,0.08,WUHU216HW,2013-11-05 10:36:00,
2013-11-05 02:41:00,44.8,0.0,30.04,ESE,113,0.0,0.4,0,0.04,,,0.10,WUHU216HW,2013-11-05 10:41:00,
2013-11-05 02:46:00,44.8,0.0,30.04,ESE,113,0.4,0.7,0,0.04,,,0.10,WUHU216HW,2013-11-05 10:46:00,
2013-11-05 02:51:00,44.8,0.0,30.04,ENE,68,0.7,0.7,0,0.02,,,0.10,WUHU216HW,2013-11-05 10:51:00,
2013-11-05 02:56:00,44.8,0.0,30.04,ENE,68,0.2,0.7,0,0.02,,,0.10,WUHU216HW,2013-11-05 10:56:00,
2013-11-05 03:01:00,44.8,0.0,30.04,ENE,68,0.0,0.7,0,0.02,,,0.10,WUHU216HW,2013-11-05 11:01:00,
2013-11-05 03:06:00,44.8,0.0,30.04,ENE,68,0.0,0.7,0,0.02,,,0.10,WUHU216HW,2013-11-05 11:06:00,
2013-11-05 03:11:00,44.8,0.0,30.04,NE,45,1.3,1.6,0,0.02,,,0.10,WUHU216HW,2013-11-05 11:11:00,
2013-11-05 03:16:00,44.8,0.0,30.04,East,90,0.4,1.6,0,0.02,,,0.10,WUHU216HW,2013-11-05 11:16:00,
2013-11-05 03:21:00,44.8,0.0,30.04,East,90,0.2,1.6,0,0.02,,,0.10,WUHU216HW,2013-11-05 11:21:00,
2013-11-05 03:26:00,44.8,0.0,30.04,East,90,0.4,0.7,0,0.02,,,0.10,WUHU216HW,2013-11-05 11:26:00,
2013-11-05 03:31:00,45.0,0.0,30.04,East,90,1.1,1.1,0,0.02,,,0.10,WUHU216HW,2013-11-05 11:31:00,
2013-11-05 03:36:00,44.8,0.0,30.04,ENE,68,1.3,1.3,0,0.02,,,0.10,WUHU216HW,2013-11-05 11:36:00,
2013-11-05 03:41:00,45.0,0.0,30.04,ENE,68,0.4,1.3,0,0.00,,,0.10,WUHU216HW,2013-11-05 11:41:00,
2013-11-05 03:46:00,45.0,0.0,30.04,ENE,68,0.0,1.3,0,0.00,,,0.10,WUHU216HW,2013-11-05 11:46:00,
2013-11-05 03:51:00,45.0,0.0,30.04,ENE,68,0.9,1.1,0,0.00,,,0.10,WUHU216HW,2013-11-05 11:51:00,
2013-11-05 03:56:00,45.0,0.0,30.04,ENE,68,0.7,1.1,0,0.00,,,0.10,WUHU216HW,2013-11-05 11:56:00,
2013-11-05 04:01:00,45.0,0.0,30.04,NE,45,0.7,1.3,0,0.00,,,0.10,WUHU216HW,2013-11-05 12:01:00,
2013-11-05 04:06:00,45.0,0.0,30.04,ENE,68,0.4,1.3,0,0.01,,,0.11,WUHU216HW,2013-11-05 12:06:00,
2013-11-05 04:11:00,45.0,0.0,30.04,ENE,68,0.4,0.7,0,0.01,,,0.11,WUHU216HW,2013-11-05 12:11:00,
2013-11-05 04:16:00,45.0,0.0,30.04,ENE,68,0.0,0.4,0,0.01,,,0.11,WUHU216HW,2013-11-05 12:16:00,
2013-11-05 04:21:00,45.0,0.0,30.03,ENE,68,0.2,1.3,0,0.01,,,0.11,WUHU216HW,2013-11-05 12:21:00,
2013-11-05 04:26:00,45.0,0.0,30.04,ENE,68,0.4,1.3,0,0.01,,,0.11,WUHU216HW,2013-11-05 12:26:00,
2013-11-05 04:31:00,45.0,0.0,30.04,ENE,68,0.0,1.1,0,0.01,,,0.11,WUHU216HW,2013-11-05 12:31:00,
2013-11-05 04:36:00,45.0,0.0,30.04,ENE,68,0.0,0.4,0,0.01,,,0.11,WUHU216HW,2013-11-05 12:36:00,
2013-11-05 04:41:00,45.0,0.0,30.04,ENE,68,0.7,0.7,0,0.01,,,0.11,WUHU216HW,2013-11-05 12:41:00,
2013-11-05 04:46:00,45.0,0.0,30.03,ENE,68,0.0,0.9,0,0.01,,,0.11,WUHU216HW,2013-11-05 12:46:00,
2013-11-05 04:51:00,45.2,0.0,30.03,ENE,68,0.0,0.9,0,0.01,,,0.11,WUHU216HW,2013-11-05 12:51:00,
2013-11-05 04:56:00,45.2,0.0,30.03,ENE,68,0.0,0.2,0,0.01,,,0.11,WUHU216HW,2013-11-05 12:56:00,
2013-11-05 05:01:00,45.2,0.0,30.03,ENE,68,0.0,0.0,0,0.01,,,0.11,WUHU216HW,2013-11-05 13:01:00,
2013-11-05 05:06:00,45.2,0.0,30.03,ENE,68,0.0,0.0,0,0.00,,,0.11,WUHU216HW,2013-11-05 13:06:00,
2013-11-05 05:11:00,45.2,0.0,30.03,ENE,68,0.0,0.0,0,0.00,,,0.11,WUHU216HW,2013-11-05 13:11:00,
2013-11-05 05:16:00,45.2,0.0,30.03,ENE,68,0.0,0.0,0,0.00,,,0.11,WUHU216HW,2013-11-05 13:16:00,
2013-11-05 05:21:00,45.2,0.0,30.02,ENE,68,0.0,0.0,0,0.00,,,0.11,WUHU216HW,2013-11-05 13:21:00,
2013-11-05 05:26:00,45.4,0.0,30.02,West,270,0.2,0.2,0,0.00,,,0.11,WUHU216HW,2013-11-05 13:26:00,
2013-11-05 05:31:00,45.4,0.0,30.02,SW,225,0.4,0.9,0,0.00,,,0.11,WUHU216HW,2013-11-05 13:31:00,
2013-11-05 05:36:00,45.4,0.0,30.02,WSW,248,0.0,1.1,0,0.00,,,0.11,WUHU216HW,2013-11-05 13:36:00,
2013-11-05 05:41:00,45.4,0.0,30.02,SSW,203,0.7,1.1,0,0.00,,,0.11,WUHU216HW,2013-11-05 13:41:00,
2013-11-05 05:46:00,45.4,0.0,30.02,SSW,203,0.0,1.1,0,0.00,,,0.11,WUHU216HW,2013-11-05 13:46:00,
2013-11-05 05:51:00,45.4,0.0,30.03,WSW,248,0.9,2.5,0,0.00,,,0.11,WUHU216HW,2013-11-05 13:51:00,
2013-11-05 05:56:00,45.4,0.0,30.02,SSW,203,1.1,2.5,0,0.00,,,0.11,WUHU216HW,2013-11-05 13:56:00,
2013-11-05 06:01:00,45.4,0.0,30.03,WSW,248,0.4,1.6,0,0.00,,,0.11,WUHU216HW,2013-11-05 14:01:00,
2013-11-05 06:06:00,45.4,0.0,30.03,WSW,248,1.3,2.0,0,0.00,,,0.11,WUHU216HW,2013-11-05 14:06:00,
2013-11-05 06:11:00,45.5,0.0,30.03,SW,225,1.3,2.0,0,0.00,,,0.11,WUHU216HW,2013-11-05 14:11:00,
2013-11-05 06:16:00,45.5,0.0,30.03,SW,225,0.4,1.3,0,0.00,,,0.11,WUHU216HW,2013-11-05 14:16:00,
2013-11-05 06:21:00,45.5,0.0,30.03,SW,225,0.0,1.1,0,0.00,,,0.11,WUHU216HW,2013-11-05 14:21:00,
2013-11-05 06:26:00,45.5,0.0,30.03,SW,225,0.4,0.7,0,0.00,,,0.11,WUHU216HW,2013-11-05 14:26:00,
2013-11-05 06:31:00,45.5,0.0,30.03,SW,225,0.4,0.7,0,0.00,,,0.11,WUHU216HW,2013-11-05 14:31:00,
2013-11-05 06:36:00,45.5,0.0,30.03,SW,225,0.4,0.9,0,0.00,,,0.11,WUHU216HW,2013-11-05 14:36:00,
2013-11-05 06:41:00,45.5,0.0,30.03,SW,225,1.1,1.1,0,0.00,,,0.11,WUHU216HW,2013-11-05 14:41:00,
2013-11-05 06:46:00,45.7,0.0,30.03,SW,225,0.4,1.1,0,0.00,,,0.11,WUHU216HW,2013-11-05 14:46:00,
2013-11-05 06:51:00,45.7,0.0,30.03,SW,225,0.9,1.1,0,0.00,,,0.11,WUHU216HW,2013-11-05 14:51:00,
2013-11-05 06:56:00,45.7,0.0,30.03,SW,225,0.9,0.9,0,0.00,,,0.11,WUHU216HW,2013-11-05 14:56:00,
2013-11-05 07:01:00,45.7,0.0,30.03,SW,225,0.4,0.9,0,0.00,,,0.11,WUHU216HW,2013-11-05 15:01:00,
2013-11-05 07:06:00,45.7,0.0,30.03,SW,225,1.3,2.5,0,0.02,,,0.13,WUHU216HW,2013-11-05 15:06:00,
2013-11-05 07:11:00,45.7,0.0,30.03,SSW,203,1.3,2.5,0,0.02,,,0.13,WUHU216HW,2013-11-05 15:11:00,
2013-11-05 07:16:00,45.9,0.0,30.03,WSW,248,0.0,2.5,0,0.02,,,0.13,WUHU216HW,2013-11-05 15:16:00,
2013-11-05 07:21:00,45.9,0.0,30.03,SSW,203,0.4,1.8,0,0.02,,,0.13,WUHU216HW,2013-11-05 15:21:00,
2013-11-05 07:26:00,46.1,0.0,30.03,SSW,203,1.8,1.8,0,0.02,,,0.13,WUHU216HW,2013-11-05 15:26:00,
2013-11-05 07:31:00,46.1,0.0,30.04,WSW,248,0.4,2.2,0,0.02,,,0.13,WUHU216HW,2013-11-05 15:31:00,
2013-11-05 07:36:00,46.3,0.0,30.04,WSW,248,0.4,2.2,0,0.02,,,0.13,WUHU216HW,2013-11-05 15:36:00,
2013-11-05 07:41:00,46.4,0.0,30.04,WSW,248,1.8,2.5,0,0.02,,,0.13,WUHU216HW,2013-11-05 15:41:00,
2013-11-05 07:46:00,46.4,0.0,30.04,SW,225,1.8,2.5,0,0.02,,,0.13,WUHU216HW,2013-11-05 15:46:00,
2013-11-05 07:51:00,46.6,0.0,30.05,SSW,203,0.7,2.5,0,0.02,,,0.13,WUHU216HW,2013-11-05 15:51:00,
2013-11-05 07:56:00,46.6,0.0,30.05,WSW,248,0.7,2.5,0,0.02,,,0.13,WUHU216HW,2013-11-05 15:56:00,
2013-11-05 08:01:00,46.6,0.0,30.05,SW,225,1.6,1.6,0,0.04,,,0.15,WUHU216HW,2013-11-05 16:01:00,
2013-11-05 08:06:00,46.8,0.0,30.05,West,270,0.2,1.8,0,0.02,,,0.15,WUHU216HW,2013-11-05 16:06:00,
2013-11-05 08:11:00,46.8,0.0,30.05,WSW,248,0.0,1.8,0,0.04,,,0.17,WUHU216HW,2013-11-05 16:11:00,
2013-11-05 08:16:00,47.0,0.0,30.05,WSW,248,1.6,1.6,0,0.04,,,0.17,WUHU216HW,2013-11-05 16:16:00,
2013-11-05 08:21:00,47.2,0.0,30.06,SSE,158,0.7,2.2,0,0.05,,,0.18,WUHU216HW,2013-11-05 16:21:00,
2013-11-05 08:26:00,47.3,0.0,30.06,SW,225,3.1,3.1,0,0.05,,,0.18,WUHU216HW,2013-11-05 16:26:00,
2013-11-05 08:31:00,47.5,0.0,30.06,SSW,203,0.9,3.1,0,0.05,,,0.18,WUHU216HW,2013-11-05 16:31:00,
2013-11-05 08:36:00,47.7,0.0,30.06,SE,135,1.1,3.8,0,0.05,,,0.18,WUHU216HW,2013-11-05 16:36:00,
2013-11-05 08:41:00,47.9,0.0,30.06,SW,225,1.8,3.8,0,0.06,,,0.19,WUHU216HW,2013-11-05 16:41:00,
2013-11-05 08:46:00,48.1,0.0,30.06,SSW,203,3.4,8.9,0,0.06,,,0.19,WUHU216HW,2013-11-05 16:46:00,
2013-11-05 08:51:00,48.2,0.0,30.06,SSW,203,1.1,8.9,0,0.06,,,0.19,WUHU216HW,2013-11-05 16:51:00,
2013-11-05 08:56:00,48.4,0.0,30.06,SE,135,1.8,3.4,0,0.06,,,0.19,WUHU216HW,2013-11-05 16:56:00,
2013-11-05 09:01:00,48.4,0.0,30.06,SW,225,0.9,3.1,0,0.04,,,0.19,WUHU216HW,2013-11-05 17:01:00,
2013-11-05 09:06:00,48.6,0.0,30.06,SE,135,2.0,6.3,0,0.04,,,0.19,WUHU216HW,2013-11-05 17:06:00,
2013-11-05 09:11:00,48.8,0.0,30.06,South,180,1.8,6.3,0,0.02,,,0.19,WUHU216HW,2013-11-05 17:11:00,
2013-11-05 09:16:00,48.8,0.0,30.05,SSW,203,1.6,4.0,0,0.02,,,0.19,WUHU216HW,2013-11-05 17:16:00,
2013-11-05 09:21:00,48.8,0.0,30.05,SW,225,1.6,3.8,0,0.01,,,0.19,WUHU216HW,2013-11-05 17:21:00,
2013-11-05 09:26:00,48.8,0.0,30.06,South,180,3.4,4.0,0,0.01,,,0.19,WUHU216HW,2013-11-05 17:26:00,
2013-11-05 09:31:00,49.0,0.0,30.05,SE,135,3.4,4.0,0,0.01,,,0.19,WUHU216HW,2013-11-05 17:31:00,
2013-11-05 09:36:00,49.1,0.0,30.05,SSE,158,2.7,4.0,0,0.01,,,0.19,WUHU216HW,2013-11-05 17:36:00,
2013-11-05 09:41:00,49.1,0.0,30.06,SW,225,1.3,5.8,0,0.00,,,0.19,WUHU216HW,2013-11-05 17:41:00,
2013-11-05 09:46:00,49.3,0.0,30.06,SSE,158,1.6,5.8,0,0.00,,,0.19,WUHU216HW,2013-11-05 17:46:00,
2013-11-05 09:51:00,49.3,0.0,30.05,SW,225,2.0,5.4,0,0.00,,,0.19,WUHU216HW,2013-11-05 17:51:00,
2013-11-05 09:56:00,49.7,0.0,30.06,WSW,248,2.5,8.3,0,0.00,,,0.19,WUHU216HW,2013-11-05 17:56:00,
2013-11-05 10:01:00,49.9,0.0,30.06,SSW,203,1.6,8.3,0,0.00,,,0.19,WUHU216HW,2013-11-05 18:01:00,
2013-11-05 10:06:00,50.0,0.0,30.06,WSW,248,3.4,6.5,0,0.00,,,0.19,WUHU216HW,2013-11-05 18:06:00,
2013-11-05 10:11:00,50.0,0.0,30.06,SE,135,2.5,5.4,0,0.00,,,0.19,WUHU216HW,2013-11-05 18:11:00,
2013-11-05 10:16:00,50.2,0.0,30.06,WSW,248,4.9,5.4,0,0.00,,,0.19,WUHU216HW,2013-11-05 18:16:00,
2013-11-05 10:21:00,50.4,0.0,30.06,ESE,113,1.3,4.9,0,0.00,,,0.19,WUHU216HW,2013-11-05 18:21:00,
2013-11-05 10:26:00,50.6,0.0,30.06,SSE,158,1.8,4.9,0,0.00,,,0.19,WUHU216HW,2013-11-05 18:26:00,
2013-11-05 10:31:00,50.6,0.0,30.07,ESE,113,1.8,3.4,0,0.00,,,0.19,WUHU216HW,2013-11-05 18:31:00,
2013-11-05 10:36:00,50.8,0.0,30.07,SE,135,1.1,7.6,0,0.00,,,0.19,WUHU216HW,2013-11-05 18:36:00,
2013-11-05 10:41:00,50.8,0.0,30.07,North,0,1.8,7.6,0,0.00,,,0.19,WUHU216HW,2013-11-05 18:41:00,
2013-11-05 10:46:00,50.9,0.0,30.07,SW,225,2.5,4.0,0,0.00,,,0.19,WUHU216HW,2013-11-05 18:46:00,
2013-11-05 10:51:00,50.9,0.0,30.07,SSE,158,2.9,4.0,0,0.00,,,0.19,WUHU216HW,2013-11-05 18:51:00,
2013-11-05 10:56:00,51.1,0.0,30.07,SW,225,4.7,6.3,0,0.00,,,0.19,WUHU216HW,2013-11-05 18:56:00,
2013-11-05 11:01:00,51.1,0.0,30.07,SSW,203,1.8,6.3,0,0.00,,,0.19,WUHU216HW,2013-11-05 19:01:00,
2013-11-05 11:06:00,51.3,0.0,30.07,SW,225,4.9,4.9,0,0.00,,,0.19,WUHU216HW,2013-11-05 19:06:00,
2013-11-05 11:11:00,51.5,0.0,30.07,SW,225,2.0,5.4,0,0.00,,,0.19,WUHU216HW,2013-11-05 19:11:00,
2013-11-05 11:16:00,51.5,0.0,30.07,SW,225,2.9,5.4,0,0.00,,,0.19,WUHU216HW,2013-11-05 19:16:00,
2013-11-05 11:21:00,51.5,0.0,30.07,SSE,158,3.4,5.4,0,0.00,,,0.19,WUHU216HW,2013-11-05 19:21:00,
2013-11-05 11:26:00,51.5,0.0,30.07,SW,225,2.5,5.4,0,0.00,,,0.19,WUHU216HW,2013-11-05 19:26:00,
2013-11-05 11:31:00,51.5,0.0,30.07,SSW,203,2.9,3.4,0,0.00,,,0.19,WUHU216HW,2013-11-05 19:31:00,
2013-11-05 11:36:00,51.5,0.0,30.07,SW,225,6.0,6.0,0,0.00,,,0.19,WUHU216HW,2013-11-05 19:36:00,
2013-11-05 11:41:00,51.5,0.0,30.07,SE,135,1.6,6.0,0,0.00,,,0.19,WUHU216HW,2013-11-05 19:41:00,
2013-11-05 11:46:00,51.5,0.0,30.06,SSE,158,0.9,4.5,0,0.00,,,0.19,WUHU216HW,2013-11-05 19:46:00,
2013-11-05 11:51:00,51.7,0.0,30.06,West,270,4.5,4.5,0,0.00,,,0.19,WUHU216HW,2013-11-05 19:51:00,
2013-11-05 11:56:00,51.8,0.0,30.07,SW,225,1.6,4.5,0,0.00,,,0.19,WUHU216HW,2013-11-05 19:56:00,
2013-11-05 12:01:00,52.0,0.0,30.07,WSW,248,2.5,4.5,0,0.00,,,0.19,WUHU216HW,2013-11-05 20:01:00,
2013-11-05 12:06:00,52.0,0.0,30.07,SE,135,1.6,3.1,0,0.00,,,0.19,WUHU216HW,2013-11-05 20:06:00,
2013-11-05 12:11:00,52.2,0.0,30.07,SSE,158,2.0,3.8,0,0.00,,,0.19,WUHU216HW,2013-11-05 20:11:00,
2013-11-05 12:16:00,52.2,0.0,30.07,SSE,158,1.1,5.4,0,0.00,,,0.19,WUHU216HW,2013-11-05 20:16:00,
2013-11-05 12:21:00,52.2,0.0,30.08,WSW,248,1.3,5.4,0,0.00,,,0.19,WUHU216HW,2013-11-05 20:21:00,
2013-11-05 12:26:00,52.2,0.0,30.08,SE,135,1.3,4.5,0,0.00,,,0.19,WUHU216HW,2013-11-05 20:26:00,
2013-11-05 12:31:00,52.0,0.0,30.07,SSW,203,2.0,4.0,0,0.00,,,0.19,WUHU216HW,2013-11-05 20:31:00,
2013-11-05 12:36:00,52.0,0.0,30.07,SSE,158,1.3,4.0,0,0.00,,,0.19,WUHU216HW,2013-11-05 20:36:00,
2013-11-05 12:41:00,52.2,0.0,30.07,SSW,203,1.6,3.4,0,0.00,,,0.19,WUHU216HW,2013-11-05 20:41:00,
2013-11-05 12:46:00,52.2,0.0,30.07,SE,135,1.1,3.1,0,0.00,,,0.19,WUHU216HW,2013-11-05 20:46:00,
2013-11-05 12:51:00,52.0,0.0,30.07,SSE,158,1.3,3.1,0,0.00,,,0.19,WUHU216HW,2013-11-05 20:51:00,
2013-11-05 12:56:00,52.0,0.0,30.07,SE,135,1.3,3.1,0,0.00,,,0.19,WUHU216HW,2013-11-05 20:56:00,
2013-11-05 13:01:00,52.2,0.0,30.07,South,180,3.4,4.0,0,0.00,,,0.19,WUHU216HW,2013-11-05 21:01:00,
2013-11-05 13:06:00,52.2,0.0,30.08,SSW,203,1.8,4.0,0,0.00,,,0.19,WUHU216HW,2013-11-05 21:06:00,
2013-11-05 13:11:00,52.2,0.0,30.08,SSW,203,1.6,4.0,0,0.00,,,0.19,WUHU216HW,2013-11-05 21:11:00,
2013-11-05 13:16:00,52.4,0.0,30.08,SE,135,1.1,4.0,0,0.00,,,0.19,WUHU216HW,2013-11-05 21:16:00,
2013-11-05 13:21:00,52.4,0.0,30.08,SW,225,3.1,4.0,0,0.00,,,0.19,WUHU216HW,2013-11-05 21:21:00,
2013-11-05 13:26:00,52.6,0.0,30.08,SE,135,1.1,3.1,0,0.00,,,0.19,WUHU216HW,2013-11-05 21:26:00,
2013-11-05 13:31:00,52.6,0.0,30.08,SSE,158,1.1,3.1,0,0.00,,,0.19,WUHU216HW,2013-11-05 21:31:00,
2013-11-05 13:36:00,52.6,0.0,30.08,SE,135,0.2,1.8,0,0.00,,,0.19,WUHU216HW,2013-11-05 21:36:00,
2013-11-05 13:41:00,52.4,0.0,30.08,SSE,158,1.3,2.9,0,0.00,,,0.19,WUHU216HW,2013-11-05 21:41:00,
2013-11-05 13:46:00,52.4,0.0,30.08,SW,225,0.9,3.4,0,0.00,,,0.19,WUHU216HW,2013-11-05 21:46:00,
2013-11-05 13:51:00,52.4,0.0,30.08,South,180,1.1,8.3,0,0.00,,,0.19,WUHU216HW,2013-11-05 21:51:00,
2013-11-05 13:56:00,52.2,0.0,30.08,SW,225,1.8,8.3,0,0.00,,,0.19,WUHU216HW,2013-11-05 21:56:00,
2013-11-05 14:01:00,52.2,0.0,30.09,SE,135,1.3,4.7,0,0.00,,,0.19,WUHU216HW,2013-11-05 22:01:00,
2013-11-05 14:06:00,52.6,0.0,30.09,WSW,248,5.1,5.1,0,0.00,,,0.19,WUHU216HW,2013-11-05 22:06:00,
2013-11-05 14:11:00,52.6,0.0,30.09,SSW,203,1.8,5.1,0,0.00,,,0.19,WUHU216HW,2013-11-05 22:11:00,
2013-11-05 14:16:00,52.6,0.0,30.09,SSE,158,3.8,5.1,0,0.00,,,0.19,WUHU216HW,2013-11-05 22:16:00,
2013-11-05 14:21:00,52.6,0.0,30.09,SSE,158,1.8,5.1,0,0.00,,,0.19,WUHU216HW,2013-11-05 22:21:00,
2013-11-05 14:26:00,52.6,0.0,30.09,SSE,158,0.7,4.9,0,0.00,,,0.19,WUHU216HW,2013-11-05 22:26:00,
2013-11-05 14:31:00,52.6,0.0,30.09,SW,225,2.2,3.1,0,0.00,,,0.19,WUHU216HW,2013-11-05 22:31:00,
2013-11-05 14:36:00,52.4,0.0,30.09,SSE,158,2.2,4.7,0,0.00,,,0.19,WUHU216HW,2013-11-05 22:36:00,
2013-11-05 14:41:00,52.2,0.0,30.10,NW,315,0.7,4.7,0,0.00,,,0.19,WUHU216HW,2013-11-05 22:41:00,
2013-11-05 14:46:00,52.2,0.0,30.10,SSW,203,2.0,2.9,0,0.00,,,0.19,WUHU216HW,2013-11-05 22:46:00,
2013-11-05 14:51:00,52.2,0.0,30.10,SSE,158,3.4,5.4,0,0.00,,,0.19,WUHU216HW,2013-11-05 22:51:00,
2013-11-05 14:56:00,52.0,0.0,30.11,SSW,203,2.5,5.4,0,0.00,,,0.19,WUHU216HW,2013-11-05 22:56:00,
2013-11-05 15:01:00,51.8,0.0,30.10,SE,135,0.7,3.4,0,0.00,,,0.19,WUHU216HW,2013-11-05 23:01:00,
2013-11-05 15:06:00,51.8,0.0,30.11,SE,135,2.5,2.5,0,0.00,,,0.19,WUHU216HW,2013-11-05 23:06:00,
2013-11-05 15:11:00,51.8,0.0,30.11,ESE,113,0.7,2.5,0,0.00,,,0.19,WUHU216HW,2013-11-05 23:11:00,
2013-11-05 15:16:00,51.8,0.0,30.11,SSW,203,2.0,2.5,0,0.00,,,0.19,WUHU216HW,2013-11-05 23:16:00,
2013-11-05 15:21:00,51.7,0.0,30.12,SW,225,2.0,2.2,0,0.00,,,0.19,WUHU216HW,2013-11-05 23:21:00,
2013-11-05 15:26:00,51.8,0.0,30.11,SSW,203,1.8,4.7,0,0.00,,,0.19,WUHU216HW,2013-11-05 23:26:00,
2013-11-05 15:31:00,51.7,0.0,30.12,SE,135,1.1,4.7,0,0.00,,,0.19,WUHU216HW,2013-11-05 23:31:00,
2013-11-05 15:36:00,51.5,0.0,30.12,SW,225,1.3,2.7,0,0.00,,,0.19,WUHU216HW,2013-11-05 23:36:00,
2013-11-05 15:41:00,51.5,0.0,30.12,SE,135,0.4,2.7,0,0.00,,,0.19,WUHU216HW,2013-11-05 23:41:00,
2013-11-05 15:46:00,51.5,0.0,30.12,SSW,203,1.1,2.5,0,0.00,,,0.19,WUHU216HW,2013-11-05 23:46:00,
2013-11-05 15:51:00,51.3,0.0,30.12,WSW,248,2.0,2.5,0,0.00,,,0.19,WUHU216HW,2013-11-05 23:51:00,
2013-11-05 15:56:00,51.5,0.0,30.12,South,180,2.5,2.5,0,0.00,,,0.19,WUHU216HW,2013-11-05 23:56:00,
2013-11-05 16:01:00,51.3,0.0,30.13,SW,225,1.3,2.5,0,0.00,,,0.19,WUHU216HW,2013-11-06 00:01:00,
2013-11-05 16:06:00,51.3,0.0,30.13,SSE,158,2.5,4.0,0,0.00,,,0.19,WUHU216HW,2013-11-06 00:06:00,
2013-11-05 16:11:00,51.3,0.0,30.13,SSE,158,0.4,4.0,0,0.00,,,0.19,WUHU216HW,2013-11-06 00:11:00,
2013-11-05 16:16:00,51.1,0.0,30.13,SSW,203,2.7,4.3,0,0.00,,,0.19,WUHU216HW,2013-11-06 00:16:00,
2013-11-05 16:21:00,50.9,0.0,30.14,SW,225,1.1,4.9,0,0.00,,,0.19,WUHU216HW,2013-11-06 00:21:00,
2013-11-05 16:26:00,50.8,0.0,30.14,SE,135,0.4,4.9,0,0.00,,,0.19,WUHU216HW,2013-11-06 00:26:00,
2013-11-05 16:31:00,50.8,0.0,30.14,NE,45,1.1,4.5,0,0.00,,,0.19,WUHU216HW,2013-11-06 00:31:00,
2013-11-05 16:36:00,50.4,0.0,30.14,SW,225,1.3,6.3,0,0.00,,,0.19,WUHU216HW,2013-11-06 00:36:00,
2013-11-05 16:41:00,50.2,0.0,30.14,NW,315,0.0,6.3,0,0.00,,,0.19,WUHU216HW,2013-11-06 00:41:00,
2013-11-05 16:46:00,50.2,0.0,30.15,SW,225,0.4,2.0,0,0.00,,,0.19,WUHU216HW,2013-11-06 00:46:00,
2013-11-05 16:51:00,50.0,0.0,30.15,SW,225,0.2,1.3,0,0.00,,,0.19,WUHU216HW,2013-11-06 00:51:00,
2013-11-05 16:56:00,49.7,0.0,30.15,SSE,158,0.0,1.3,0,0.00,,,0.19,WUHU216HW,2013-11-06 00:56:00,
2013-11-05 17:01:00,49.5,0.0,30.15,SE,135,0.2,1.3,0,0.00,,,0.19,WUHU216HW,2013-11-06 01:01:00,
2013-11-05 17:06:00,49.3,0.0,30.16,SE,135,0.0,1.3,0,0.00,,,0.19,WUHU216HW,2013-11-06 01:06:00,
2013-11-05 17:11:00,49.1,0.0,30.15,East,90,0.4,1.1,0,0.00,,,0.19,WUHU216HW,2013-11-06 01:11:00,
2013-11-05 17:16:00,49.0,0.0,30.16,SW,225,0.2,1.3,0,0.00,,,0.19,WUHU216HW,2013-11-06 01:16:00,
2013-11-05 17:21:00,48.8,0.0,30.16,WSW,248,1.1,1.3,0,0.00,,,0.19,WUHU216HW,2013-11-06 01:21:00,
2013-11-05 17:26:00,48.6,0.0,30.16,SW,225,0.4,1.8,0,0.00,,,0.19,WUHU216HW,2013-11-06 01:26:00,
2013-11-05 17:31:00,48.4,0.0,30.16,SW,225,0.4,1.8,0,0.00,,,0.19,WUHU216HW,2013-11-06 01:31:00,
2013-11-05 17:36:00,48.4,0.0,30.16,SW,225,0.0,1.3,0,0.00,,,0.19,WUHU216HW,2013-11-06 01:36:00,
2013-11-05 17:41:00,48.2,0.0,30.16,SW,225,0.4,1.1,0,0.00,,,0.19,WUHU216HW,2013-11-06 01:41:00,
2013-11-05 17:46:00,48.1,0.0,30.16,SW,225,0.7,1.1,0,0.00,,,0.19,WUHU216HW,2013-11-06 01:46:00,
2013-11-05 17:51:00,48.1,0.0,30.17,WSW,248,0.4,1.3,0,0.00,,,0.19,WUHU216HW,2013-11-06 01:51:00,
2013-11-05 17:56:00,47.9,0.0,30.17,WSW,248,0.9,1.3,0,0.00,,,0.19,WUHU216HW,2013-11-06 01:56:00,
2013-11-05 18:01:00,47.9,0.0,30.17,WSW,248,0.0,1.1,0,0.00,,,0.19,WUHU216HW,2013-11-06 02:01:00,
2013-11-05 18:06:00,47.9,0.0,30.17,WSW,248,0.4,1.6,0,0.00,,,0.19,WUHU216HW,2013-11-06 02:06:00,
2013-11-05 18:11:00,47.9,0.0,30.17,WSW,248,0.0,1.6,0,0.00,,,0.19,WUHU216HW,2013-11-06 02:11:00,
2013-11-05 18:16:00,47.9,0.0,30.18,WSW,248,0.0,0.7,0,0.00,,,0.19,WUHU216HW,2013-11-06 02:16:00,
2013-11-05 18:21:00,47.7,0.0,30.19,WSW,248,0.0,0.7,0,0.00,,,0.19,WUHU216HW,2013-11-06 02:21:00,
2013-11-05 18:26:00,47.7,0.0,30.19,WSW,248,0.0,0.7,0,0.00,,,0.19,WUHU216HW,2013-11-06 02:26:00,
2013-11-05 18:31:00,47.5,0.0,30.19,WSW,248,0.2,0.9,0,0.00,,,0.19,WUHU216HW,2013-11-06 02:31:00,
2013-11-05 18:36:00,47.5,0.0,30.19,WSW,248,0.4,1.1,0,0.00,,,0.19,WUHU216HW,2013-11-06 02:36:00,
2013-11-05 18:41:00,47.5,0.0,30.20,WSW,248,1.1,1.1,0,0.00,,,0.19,WUHU216HW,2013-11-06 02:41:00,
2013-11-05 18:46:00,47.5,0.0,30.19,WSW,248,0.2,1.1,0,0.00,,,0.19,WUHU216HW,2013-11-06 02:46:00,
2013-11-05 18:51:00,47.3,0.0,30.19,WSW,248,0.2,1.3,0,0.00,,,0.19,WUHU216HW,2013-11-06 02:51:00,
2013-11-05 18:56:00,47.3,0.0,30.19,SW,225,1.1,1.3,0,0.00,,,0.19,WUHU216HW,2013-11-06 02:56:00,
2013-11-05 19:01:00,47.2,0.0,30.20,SW,225,1.1,1.1,0,0.00,,,0.19,WUHU216HW,2013-11-06 03:01:00,
2013-11-05 19:06:00,47.2,0.0,30.20,SW,225,1.1,1.8,0,0.00,,,0.19,WUHU216HW,2013-11-06 03:06:00,
2013-11-05 19:11:00,47.0,0.0,30.20,SW,225,1.1,1.8,0,0.00,,,0.19,WUHU216HW,2013-11-06 03:11:00,
2013-11-05 19:16:00,46.8,0.0,30.20,SW,225,0.7,1.6,0,0.00,,,0.19,WUHU216HW,2013-11-06 03:16:00,
2013-11-05 19:21:00,46.8,0.0,30.20,SW,225,1.6,1.8,0,0.00,,,0.19,WUHU216HW,2013-11-06 03:21:00,
2013-11-05 19:26:00,46.6,0.0,30.20,SW,225,1.3,1.8,0,0.00,,,0.19,WUHU216HW,2013-11-06 03:26:00,
2013-11-05 19:31:00,46.6,0.0,30.20,SW,225,1.1,1.8,0,0.00,,,0.19,WUHU216HW,2013-11-06 03:31:00,
2013-11-05 19:36:00,46.4,0.0,30.20,SW,225,0.7,1.6,0,0.00,,,0.19,WUHU216HW,2013-11-06 03:36:00,
2013-11-05 19:41:00,46.4,0.0,30.20,SSW,203,0.9,1.8,0,0.00,,,0.19,WUHU216HW,2013-11-06 03:41:00,
2013-11-05 19:46:00,46.3,0.0,30.21,SW,225,0.2,1.8,0,0.00,,,0.19,WUHU216HW,2013-11-06 03:46:00,
2013-11-05 19:51:00,46.3,0.0,30.21,SW,225,0.4,1.3,0,0.00,,,0.19,WUHU216HW,2013-11-06 03:51:00,
2013-11-05 19:56:00,46.1,0.0,30.21,SW,225,0.0,1.3,0,0.00,,,0.19,WUHU216HW,2013-11-06 03:56:00,
2013-11-05 20:01:00,45.7,0.0,30.21,SW,225,0.2,0.7,0,0.00,,,0.19,WUHU216HW,2013-11-06 04:01:00,
2013-11-05 20:06:00,45.7,0.0,30.21,SW,225,0.7,1.1,0,0.00,,,0.19,WUHU216HW,2013-11-06 04:06:00,
2013-11-05 20:11:00,45.5,0.0,30.21,SW,225,0.4,1.1,0,0.00,,,0.19,WUHU216HW,2013-11-06 04:11:00,
2013-11-05 20:16:00,45.5,0.0,30.21,SW,225,0.4,1.1,0,0.00,,,0.19,WUHU216HW,2013-11-06 04:16:00,
2013-11-05 20:21:00,45.4,0.0,30.22,SW,225,0.9,1.1,0,0.00,,,0.19,WUHU216HW,2013-11-06 04:21:00,
2013-11-05 20:26:00,45.4,0.0,30.22,SW,225,0.4,1.1,0,0.00,,,0.19,WUHU216HW,2013-11-06 04:26:00,
2013-11-05 20:31:00,45.0,0.0,30.22,SW,225,0.7,0.9,0,0.00,,,0.19,WUHU216HW,2013-11-06 04:31:00,
2013-11-05 20:36:00,45.0,0.0,30.22,WSW,248,1.3,1.6,0,0.00,,,0.19,WUHU216HW,2013-11-06 04:36:00,
2013-11-05 20:41:00,44.8,0.0,30.22,WSW,248,1.6,1.8,0,0.00,,,0.19,WUHU216HW,2013-11-06 04:41:00,
2013-11-05 20:46:00,44.5,0.0,30.22,WSW,248,1.8,1.8,0,0.00,,,0.19,WUHU216HW,2013-11-06 04:46:00,
2013-11-05 20:51:00,44.3,0.0,30.22,WSW,248,1.8,2.0,0,0.00,,,0.19,WUHU216HW,2013-11-06 04:51:00,
2013-11-05 20:56:00,44.3,0.0,30.22,WSW,248,1.3,2.0,0,0.00,,,0.19,WUHU216HW,2013-11-06 04:56:00,
2013-11-05 21:01:00,43.9,0.0,30.22,WSW,248,1.3,2.0,0,0.00,,,0.19,WUHU216HW,2013-11-06 05:01:00,
2013-11-05 21:06:00,43.7,0.0,30.23,WSW,248,1.3,2.0,0,0.00,,,0.19,WUHU216HW,2013-11-06 05:06:00,
2013-11-05 21:11:00,43.6,0.0,30.23,WSW,248,1.1,1.6,0,0.00,,,0.19,WUHU216HW,2013-11-06 05:11:00,
2013-11-05 21:16:00,43.4,0.0,30.24,WSW,248,1.3,1.6,0,0.00,,,0.19,WUHU216HW,2013-11-06 05:16:00,
2013-11-05 21:21:00,43.4,0.0,30.24,WSW,248,0.7,1.3,0,0.00,,,0.19,WUHU216HW,2013-11-06 05:21:00,
2013-11-05 21:26:00,43.2,0.0,30.24,SW,225,2.2,2.2,0,0.00,,,0.19,WUHU216HW,2013-11-06 05:26:00,
2013-11-05 21:31:00,43.0,0.0,30.24,SW,225,1.1,2.5,0,0.00,,,0.19,WUHU216HW,2013-11-06 05:31:00,
2013-11-05 21:36:00,42.8,0.0,30.24,WSW,248,0.7,2.5,0,0.00,,,0.19,WUHU216HW,2013-11-06 05:36:00,
2013-11-05 21:41:00,42.7,0.0,30.24,WSW,248,1.3,1.8,0,0.00,,,0.19,WUHU216HW,2013-11-06 05:41:00,
2013-11-05 21:46:00,42.7,0.0,30.24,SW,225,1.3,2.2,0,0.00,,,0.19,WUHU216HW,2013-11-06 05:46:00,
2013-11-05 21:51:00,42.5,0.0,30.24,SW,225,1.8,2.2,0,0.00,,,0.19,WUHU216HW,2013-11-06 05:51:00,
2013-11-05 21:56:00,42.5,0.0,30.24,SW,225,1.1,1.8,0,0.00,,,0.19,WUHU216HW,2013-11-06 05:56:00,
2013-11-05 22:01:00,42.5,0.0,30.24,SW,225,0.9,1.8,0,0.00,,,0.19,WUHU216HW,2013-11-06 06:01:00,
2013-11-05 22:06:00,42.5,0.0,30.24,SW,225,0.9,1.3,0,0.00,,,0.19,WUHU216HW,2013-11-06 06:06:00,
2013-11-05 22:11:00,42.7,0.0,30.24,WSW,248,1.1,1.8,0,0.00,,,0.19,WUHU216HW,2013-11-06 06:11:00,
2013-11-05 22:16:00,42.7,0.0,30.24,WSW,248,1.1,1.8,0,0.00,,,0.19,WUHU216HW,2013-11-06 06:16:00,
2013-11-05 22:21:00,42.7,0.0,30.25,SW,225,1.1,1.6,0,0.00,,,0.19,WUHU216HW,2013-11-06 06:21:00,
2013-11-05 22:26:00,42.7,0.0,30.24,WSW,248,1.8,2.5,0,0.00,,,0.19,WUHU216HW,2013-11-06 06:26:00,
2013-11-05 22:31:00,42.7,0.0,30.25,SW,225,2.5,2.5,0,0.00,,,0.19,WUHU216HW,2013-11-06 06:31:00,
2013-11-05 22:36:00,42.7,0.0,30.25,WSW,248,2.0,2.5,0,0.00,,,0.19,WUHU216HW,2013-11-06 06:36:00,
2013-11-05 22:41:00,42.8,0.0,30.25,WSW,248,2.0,2.5,0,0.00,,,0.19,WUHU216HW,2013-11-06 06:41:00,
2013-11-05 22:46:00,42.8,0.0,30.25,SW,225,1.8,2.5,0,0.00,,,0.19,WUHU216HW,2013-11-06 06:46:00,
2013-11-05 22:51:00,42.7,0.0,30.25,WSW,248,1.3,2.5,0,0.00,,,0.19,WUHU216HW,2013-11-06 06:51:00,
2013-11-05 22:56:00,42.7,0.0,30.25,SW,225,1.8,2.2,0,0.00,,,0.19,WUHU216HW,2013-11-06 06:56:00,
2013-11-05 23:01:00,42.5,0.0,30.25,WSW,248,2.0,2.2,0,0.00,,,0.19,WUHU216HW,2013-11-06 07:01:00,
2013-11-05 23:06:00,42.3,0.0,30.25,WSW,248,1.1,2.2,0,0.00,,,0.19,WUHU216HW,2013-11-06 07:06:00,
2013-11-05 23:11:00,42.1,0.0,30.25,WSW,248,1.8,2.0,0,0.00,,,0.19,WUHU216HW,2013-11-06 07:11:00,
2013-11-05 23:16:00,42.1,0.0,30.26,SW,225,1.8,2.5,0,0.00,,,0.19,WUHU216HW,2013-11-06 07:16:00,
2013-11-05 23:21:00,42.1,0.0,30.26,SW,225,1.6,2.5,0,0.00,,,0.19,WUHU216HW,2013-11-06 07:21:00,
2013-11-05 23:26:00,41.9,0.0,30.26,SW,225,0.9,1.8,0,0.00,,,0.19,WUHU216HW,2013-11-06 07:26:00,
2013-11-05 23:31:00,41.9,0.0,30.26,WSW,248,1.6,2.5,0,0.00,,,0.19,WUHU216HW,2013-11-06 07:31:00,
2013-11-05 23:36:00,41.9,0.0,30.26,WSW,248,1.1,2.5,0,0.00,,,0.19,WUHU216HW,2013-11-06 07:36:00,
2013-11-05 23:41:00,41.9,0.0,30.26,WSW,248,1.1,2.0,0,0.00,,,0.19,WUHU216HW,2013-11-06 07:41:00,
2013-11-05 23:46:00,41.9,0.0,30.26,WSW,248,1.8,1.8,0,0.00,,,0.19,WUHU216HW,2013-11-06 07:46:00,
2013-11-05 23:51:00,41.9,0.0,30.26,WSW,248,0.9,1.8,0,0.00,,,0.19,WUHU216HW,2013-11-06 07:51:00,
2013-11-05 23:56:00,41.9,0.0,30.27,SW,225,1.1,1.8,0,0.00,,,0.19,WUHU216HW,2013-11-06 07:56:00,